createdAt,value
2018-11-21T00:01:55.455Z,2.80
2018-11-21T00:04:57.884Z,3.00
2018-11-21T00:08:00.339Z,2.90
2018-11-21T00:11:02.743Z,3.00
2018-11-21T00:14:05.746Z,3.00
2018-11-21T00:17:08.216Z,3.20
2018-11-21T00:20:10.647Z,3.00
2018-11-21T00:23:13.095Z,2.90
2018-11-21T00:26:15.518Z,2.70
2018-11-21T00:29:17.981Z,2.80
2018-11-21T00:32:21.734Z,2.90
2018-11-21T00:35:24.204Z,2.60
2018-11-21T00:38:26.613Z,2.90
2018-11-21T00:41:29.051Z,2.70
2018-11-21T00:44:31.490Z,2.80
2018-11-21T00:47:33.926Z,2.50
2018-11-21T00:50:36.380Z,2.30
2018-11-21T00:53:38.843Z,2.60
2018-11-21T00:56:41.280Z,2.80
2018-11-21T00:59:43.727Z,3.00
2018-11-21T01:02:46.157Z,3.10
2018-11-21T01:05:48.725Z,2.90
2018-11-21T01:08:51.133Z,2.70
2018-11-21T01:11:53.536Z,2.30
2018-11-21T01:14:56.009Z,3.10
2018-11-21T01:17:58.495Z,2.50
2018-11-21T01:21:00.947Z,2.80
2018-11-21T01:24:03.446Z,2.70
2018-11-21T01:27:05.910Z,2.70
2018-11-21T01:30:08.561Z,2.90
2018-11-21T01:33:10.980Z,2.40
2018-11-21T01:36:13.396Z,2.00
2018-11-21T01:39:15.886Z,2.30
2018-11-21T01:42:18.321Z,2.10
2018-11-21T01:45:20.718Z,2.60
2018-11-21T01:48:23.120Z,2.70
2018-11-21T01:51:25.620Z,2.70
2018-11-21T01:54:28.042Z,2.40
2018-11-21T01:57:30.683Z,2.80
2018-11-21T02:00:33.129Z,2.70
2018-11-21T02:03:35.928Z,2.40
2018-11-21T02:06:38.515Z,2.60
2018-11-21T02:09:40.923Z,2.40
2018-11-21T02:12:43.377Z,2.60
2018-11-21T02:15:45.797Z,2.60
2018-11-21T02:18:48.265Z,2.70
2018-11-21T02:21:50.690Z,2.00
2018-11-21T02:24:53.142Z,2.30
2018-11-21T02:27:55.585Z,2.30
2018-11-21T02:30:58.002Z,2.50
2018-11-21T02:34:00.427Z,2.50
2018-11-21T02:37:02.871Z,2.40
2018-11-21T02:40:06.472Z,2.50
2018-11-21T02:43:08.894Z,2.60
2018-11-21T02:46:11.323Z,2.90
2018-11-21T02:49:13.756Z,2.30
2018-11-21T02:52:16.188Z,2.90
2018-11-21T02:55:18.681Z,2.60
2018-11-21T02:58:21.187Z,2.40
2018-11-21T03:01:23.630Z,2.40
2018-11-21T03:04:26.483Z,1.90
2018-11-21T03:07:28.941Z,2.50
2018-11-21T03:10:31.347Z,2.30
2018-11-21T03:13:33.798Z,2.00
2018-11-21T03:16:36.275Z,2.20
2018-11-21T03:19:38.722Z,2.20
2018-11-21T03:22:41.145Z,2.10
2018-11-21T03:25:43.650Z,2.20
2018-11-21T03:28:46.066Z,2.20
2018-11-21T03:31:48.501Z,2.00
2018-11-21T03:34:50.918Z,2.10
2018-11-21T03:37:53.340Z,2.00
2018-11-21T03:40:55.759Z,1.70
2018-11-21T03:43:58.141Z,2.20
2018-11-21T03:47:00.588Z,1.50
2018-11-21T03:50:03.967Z,1.90
2018-11-21T03:53:06.446Z,1.90
2018-11-21T03:56:08.842Z,2.10
2018-11-21T03:59:11.323Z,1.90
2018-11-21T04:02:13.741Z,2.00
2018-11-21T04:05:16.161Z,1.90
2018-11-21T04:08:18.610Z,2.00
2018-11-21T04:11:21.028Z,1.90
2018-11-21T04:14:23.457Z,2.00
2018-11-21T04:17:25.903Z,2.00
2018-11-21T04:20:28.328Z,1.90
2018-11-21T04:23:30.789Z,2.00
2018-11-21T04:26:33.225Z,1.90
2018-11-21T04:29:35.697Z,1.90
2018-11-21T04:32:38.140Z,1.90
2018-11-21T04:35:40.534Z,1.90
2018-11-21T04:38:42.995Z,2.10
2018-11-21T04:41:45.457Z,2.30
2018-11-21T04:44:47.893Z,2.40
2018-11-21T04:47:50.315Z,2.20
2018-11-21T04:50:52.779Z,2.40
2018-11-21T04:53:55.210Z,2.40
2018-11-21T04:56:57.652Z,2.30
2018-11-21T05:00:00.099Z,2.40
2018-11-21T05:03:02.533Z,2.40
2018-11-21T05:06:05.385Z,2.40
2018-11-21T05:09:09.737Z,2.20
2018-11-21T05:12:12.184Z,2.20
2018-11-21T05:15:14.684Z,1.70
2018-11-21T05:18:17.122Z,2.00
2018-11-21T05:21:19.526Z,2.30
2018-11-21T05:24:21.989Z,2.20
2018-11-21T05:27:24.442Z,1.90
2018-11-21T05:30:26.884Z,2.10
2018-11-21T05:33:29.333Z,2.30
2018-11-21T05:36:31.754Z,2.20
2018-11-21T05:39:34.242Z,2.00
2018-11-21T05:42:36.687Z,2.10
2018-11-21T05:45:39.134Z,1.60
2018-11-21T05:48:41.671Z,2.30
2018-11-21T05:51:44.127Z,2.10
2018-11-21T05:54:46.549Z,2.30
2018-11-21T05:57:48.975Z,2.20
2018-11-21T06:00:51.400Z,1.90
2018-11-21T06:03:53.825Z,2.10
2018-11-21T06:06:56.261Z,2.00
2018-11-21T06:09:58.703Z,1.40
2018-11-21T06:13:01.141Z,2.20
2018-11-21T06:16:04.056Z,2.00
2018-11-21T06:19:06.534Z,1.50
2018-11-21T06:22:09.028Z,2.20
2018-11-21T06:25:12.085Z,2.20
2018-11-21T06:28:14.471Z,1.60
2018-11-21T06:31:16.877Z,2.00
2018-11-21T06:34:19.313Z,2.00
2018-11-21T06:37:21.770Z,2.10
2018-11-21T06:40:24.176Z,1.90
2018-11-21T06:43:26.606Z,1.80
2018-11-21T06:46:29.040Z,1.90
2018-11-21T06:49:31.482Z,1.90
2018-11-21T06:52:33.927Z,1.70
2018-11-21T06:55:36.371Z,1.90
2018-11-21T06:58:38.809Z,2.00
2018-11-21T07:01:41.233Z,1.90
2018-11-21T07:04:43.660Z,1.70
2018-11-21T07:07:46.188Z,1.80
2018-11-21T07:10:48.598Z,1.80
2018-11-21T07:13:51.027Z,1.70
2018-11-21T07:16:53.473Z,1.80
2018-11-21T07:19:55.908Z,1.70
2018-11-21T07:22:58.322Z,1.80
2018-11-21T07:26:00.752Z,2.00
2018-11-21T07:29:03.490Z,2.20
2018-11-21T07:32:05.958Z,2.20
2018-11-21T07:35:08.738Z,2.00
2018-11-21T07:38:11.143Z,2.00
2018-11-21T07:41:13.572Z,2.00
2018-11-21T07:44:16.016Z,2.20
2018-11-21T07:47:18.476Z,2.50
2018-11-21T07:50:21.324Z,2.00
2018-11-21T07:53:23.754Z,2.20
2018-11-21T07:57:31.517Z,2.40
2018-11-21T08:01:06.224Z,2.40
2018-11-21T08:04:13.308Z,2.30
2018-11-21T08:07:26.967Z,2.30
2018-11-21T08:10:48.882Z,2.50
2018-11-21T08:14:09.762Z,2.00
2018-11-21T08:17:31.787Z,2.30
2018-11-21T08:21:11.947Z,2.30
2018-11-21T08:24:19.776Z,2.30
2018-11-21T08:27:41.857Z,2.20
2018-11-21T08:30:44.268Z,1.70
2018-11-21T08:33:46.721Z,2.50
2018-11-21T08:36:49.131Z,2.50
2018-11-21T08:39:51.557Z,2.50
2018-11-21T08:42:53.978Z,2.70
2018-11-21T08:45:56.383Z,10.40
2018-11-21T08:48:58.829Z,11.20
2018-11-21T08:52:01.746Z,8.70
2018-11-21T08:55:08.992Z,6.00
2018-11-21T08:58:09.039Z,5.20
2018-11-21T09:01:11.874Z,4.50
2018-11-21T09:04:14.296Z,3.80
2018-11-21T09:07:16.741Z,3.50
2018-11-21T09:10:19.127Z,3.00
2018-11-21T09:13:21.576Z,3.20
2018-11-21T09:16:23.991Z,3.00
2018-11-21T09:19:26.425Z,2.80
2018-11-21T09:22:28.910Z,3.00
2018-11-21T09:25:31.290Z,3.00
2018-11-21T09:28:33.729Z,2.80
2018-11-21T09:31:36.155Z,3.20
2018-11-21T09:34:38.620Z,2.80
2018-11-21T09:37:41.093Z,3.00
2018-11-21T09:40:43.508Z,3.30
2018-11-21T09:43:45.993Z,3.20
2018-11-21T09:46:48.535Z,3.00
2018-11-21T09:49:50.974Z,3.00
2018-11-21T09:52:53.389Z,3.40
2018-11-21T09:55:55.797Z,2.90
2018-11-21T09:58:58.210Z,3.20
2018-11-21T10:02:56.305Z,3.50
2018-11-21T10:06:20.495Z,3.40
2018-11-21T10:09:25.577Z,3.50
2018-11-21T10:12:28.025Z,3.60
2018-11-21T10:15:30.428Z,3.50
2018-11-21T10:18:33.733Z,3.60
2018-11-21T10:21:36.257Z,3.60
2018-11-21T10:24:38.669Z,3.20
2018-11-21T10:27:41.083Z,3.10
2018-11-21T10:30:43.506Z,3.70
2018-11-21T10:33:45.991Z,4.00
2018-11-21T10:36:48.517Z,3.90
2018-11-21T10:39:50.959Z,3.80
2018-11-21T10:42:53.360Z,3.80
2018-11-21T10:45:55.773Z,4.10
2018-11-21T10:48:58.193Z,4.20
2018-11-21T10:52:00.610Z,3.90
2018-11-21T10:55:03.052Z,4.00
2018-11-21T10:58:05.479Z,4.50
2018-11-21T11:01:22.532Z,4.90
2018-11-21T11:04:31.666Z,4.40
2018-11-21T11:07:52.166Z,8.30
2018-11-21T11:11:04.439Z,6.50
2018-11-21T11:14:26.447Z,5.60
2018-11-21T11:17:46.998Z,5.10
2018-11-21T11:21:15.060Z,4.70
2018-11-21T11:24:34.020Z,4.90
2018-11-21T11:28:04.716Z,4.80
2018-11-21T11:31:35.607Z,4.70
2018-11-21T11:35:04.520Z,4.80
2018-11-21T11:38:35.713Z,4.60
2018-11-21T11:42:06.686Z,4.80
2018-11-21T11:45:27.317Z,4.80
2018-11-21T11:48:58.281Z,5.00
2018-11-21T11:52:19.636Z,4.80
2018-11-21T11:55:40.874Z,5.00
2018-11-21T11:59:21.328Z,4.90
2018-11-21T12:02:37.287Z,4.60
2018-11-21T12:06:14.844Z,5.00
2018-11-21T12:09:37.067Z,4.90
2018-11-21T12:12:58.412Z,5.10
2018-11-21T12:16:18.076Z,4.70
2018-11-21T12:19:40.272Z,5.00
2018-11-21T12:22:59.325Z,5.20
2018-11-21T12:26:30.561Z,5.10
2018-11-21T12:29:44.013Z,5.20
2018-11-21T12:33:18.620Z,5.10
2018-11-21T12:36:35.846Z,5.30
2018-11-21T12:40:16.314Z,5.40
2018-11-21T12:43:26.237Z,5.10
2018-11-21T12:46:51.338Z,5.30
2018-11-21T12:50:12.584Z,5.20
2018-11-21T12:53:37.967Z,5.50
2018-11-21T12:56:52.688Z,5.30
2018-11-21T13:00:20.816Z,5.40
2018-11-21T13:03:41.761Z,5.20
2018-11-21T13:07:00.669Z,5.20
2018-11-21T13:10:32.045Z,5.50
2018-11-21T13:14:09.041Z,5.40
2018-11-21T13:17:30.332Z,5.30
2018-11-21T13:20:44.808Z,5.30
2018-11-21T13:24:08.990Z,5.20
2018-11-21T13:27:33.622Z,4.70
2018-11-21T13:30:54.214Z,5.20
2018-11-21T13:34:04.842Z,4.90
2018-11-21T13:37:25.346Z,4.70
2018-11-21T13:40:45.009Z,5.30
2018-11-21T13:44:00.827Z,5.20
2018-11-21T13:47:21.667Z,5.40
2018-11-21T13:50:43.699Z,5.90
2018-11-21T13:54:17.937Z,5.50
2018-11-21T13:57:20.544Z,5.40
2018-11-21T14:00:22.957Z,5.10
2018-11-21T14:03:25.361Z,5.00
2018-11-21T14:06:27.787Z,5.00
2018-11-21T14:09:30.224Z,5.10
2018-11-21T14:12:32.639Z,5.10
2018-11-21T14:15:35.102Z,5.10
2018-11-21T14:18:37.538Z,4.70
2018-11-21T14:21:39.970Z,4.90
2018-11-21T14:24:42.469Z,4.70
2018-11-21T14:27:45.851Z,4.70
2018-11-21T14:30:47.345Z,4.80
2018-11-21T14:33:49.813Z,4.60
2018-11-21T14:36:52.253Z,4.60
2018-11-21T14:39:54.696Z,4.60
2018-11-21T14:42:57.129Z,4.20
2018-11-21T14:45:59.780Z,4.60
2018-11-21T14:49:02.220Z,4.60
2018-11-21T14:52:04.667Z,4.60
2018-11-21T14:55:07.091Z,4.90
2018-11-21T14:58:09.618Z,5.10
2018-11-21T15:01:12.064Z,5.60
2018-11-21T15:04:14.513Z,6.60
2018-11-21T15:07:17.021Z,5.80
2018-11-21T15:10:19.474Z,5.40
2018-11-21T15:13:22.087Z,5.20
2018-11-21T15:16:24.480Z,5.00
2018-11-21T15:19:26.923Z,5.00
2018-11-21T15:22:29.405Z,4.70
2018-11-21T15:25:31.833Z,4.50
2018-11-21T15:28:34.253Z,4.30
2018-11-21T15:31:36.667Z,4.30
2018-11-21T15:34:39.102Z,4.30
2018-11-21T15:37:42.209Z,4.30
2018-11-21T15:40:47.046Z,4.20
2018-11-21T15:43:47.055Z,4.40
2018-11-21T15:46:49.811Z,4.30
2018-11-21T15:49:52.348Z,4.30
2018-11-21T15:52:54.771Z,4.00
2018-11-21T15:55:57.207Z,4.20
2018-11-21T15:58:59.645Z,4.00
2018-11-21T16:02:02.085Z,4.20
2018-11-21T16:05:05.100Z,4.10
2018-11-21T16:08:07.504Z,4.10
2018-11-21T16:11:10.046Z,4.00
2018-11-21T16:14:12.509Z,4.00
2018-11-21T16:17:14.930Z,3.80
2018-11-21T16:20:17.759Z,3.70
2018-11-21T16:23:20.155Z,3.60
2018-11-21T16:26:22.565Z,3.70
2018-11-21T16:29:24.969Z,3.70
2018-11-21T16:32:27.430Z,3.70
2018-11-21T16:35:29.865Z,3.50
2018-11-21T16:38:33.004Z,3.50
2018-11-21T16:41:35.452Z,3.30
2018-11-21T16:44:37.891Z,3.40
2018-11-21T16:47:40.322Z,3.50
2018-11-21T16:50:42.739Z,3.60
2018-11-21T16:53:45.199Z,3.30
2018-11-21T16:56:47.648Z,3.40
2018-11-21T16:59:50.139Z,3.40
2018-11-21T17:02:52.579Z,3.10
2018-11-21T17:05:55.018Z,3.30
2018-11-21T17:08:57.426Z,3.20
2018-11-21T17:11:59.866Z,3.40
2018-11-21T17:15:02.307Z,2.70
2018-11-21T17:18:04.973Z,3.00
2018-11-21T17:21:07.380Z,3.50
2018-11-21T17:24:09.829Z,3.50
2018-11-21T17:27:12.257Z,3.30
2018-11-21T17:30:15.864Z,3.30
2018-11-21T17:33:18.292Z,3.40
2018-11-21T17:36:20.732Z,3.30
2018-11-21T17:39:23.144Z,3.20
2018-11-21T17:42:25.555Z,3.60
2018-11-21T17:45:27.990Z,3.90
2018-11-21T17:48:30.440Z,3.60
2018-11-21T17:51:32.918Z,3.40
2018-11-21T17:54:35.333Z,3.40
2018-11-21T17:57:37.947Z,2.90
2018-11-21T18:00:40.365Z,3.20
2018-11-21T18:03:42.801Z,3.60
2018-11-21T18:06:45.301Z,3.40
2018-11-21T18:09:47.737Z,3.50
2018-11-21T18:12:50.152Z,3.30
2018-11-21T18:15:52.569Z,3.20
2018-11-21T18:18:54.990Z,3.10
2018-11-21T18:21:57.474Z,2.90
2018-11-21T18:24:59.902Z,2.80
2018-11-21T18:28:02.896Z,3.50
2018-11-21T18:31:05.445Z,3.60
2018-11-21T18:34:07.921Z,3.60
2018-11-21T18:37:10.346Z,3.60
2018-11-21T18:40:14.736Z,3.20
2018-11-21T18:43:17.189Z,3.60
2018-11-21T18:46:19.631Z,3.90
2018-11-21T18:49:22.046Z,3.30
2018-11-21T18:52:24.533Z,3.50
2018-11-21T18:55:51.360Z,4.00
2018-11-21T18:59:31.788Z,4.00
2018-11-21T19:02:34.199Z,4.00
2018-11-21T19:05:36.672Z,4.00
2018-11-21T19:08:39.290Z,4.10
2018-11-21T19:11:41.990Z,4.10
2018-11-21T19:14:44.615Z,4.10
2018-11-21T19:17:47.345Z,4.00
2018-11-21T19:20:50.216Z,4.10
2018-11-21T19:23:52.842Z,3.80
2018-11-21T19:26:55.668Z,4.00
2018-11-21T19:29:58.319Z,4.20
2018-11-21T19:33:01.002Z,4.10
2018-11-21T19:36:04.163Z,4.00
2018-11-21T19:39:11.221Z,4.00
2018-11-21T19:42:13.795Z,4.10
2018-11-21T19:45:16.769Z,4.10
2018-11-21T19:48:19.333Z,4.00
2018-11-21T19:51:21.992Z,4.20
2018-11-21T19:54:25.285Z,4.00
2018-11-21T19:57:27.807Z,3.90
2018-11-21T20:00:31.478Z,3.80
2018-11-21T20:03:33.928Z,4.00
2018-11-21T20:06:36.423Z,4.10
2018-11-21T20:09:38.882Z,3.30
2018-11-21T20:12:41.856Z,4.00
2018-11-21T20:15:44.281Z,3.40
2018-11-21T20:18:46.753Z,4.20
2018-11-21T20:21:49.203Z,3.90
2018-11-21T20:24:51.697Z,4.00
2018-11-21T20:27:54.124Z,3.90
2018-11-21T20:30:57.455Z,4.20
2018-11-21T20:33:59.956Z,4.00
2018-11-21T20:37:02.617Z,4.10
2018-11-21T20:40:09.417Z,4.20
2018-11-21T20:43:11.822Z,4.00
2018-11-21T20:46:14.232Z,4.10
2018-11-21T20:49:16.760Z,4.00
2018-11-21T20:52:19.191Z,3.80
2018-11-21T20:55:23.102Z,4.20
2018-11-21T20:58:25.729Z,4.00
2018-11-21T21:01:28.194Z,3.90
2018-11-21T21:04:30.585Z,4.00
2018-11-21T21:07:33.113Z,4.10
2018-11-21T21:10:43.009Z,4.00
